Time;durP1;ratioP1;P1;durP2;ratioP2;P2;SDS_P1;SDS_P2;PMS_P1;PMS_P2;Temp;Humidity;BMP_temperature;BMP_pressure;BME280_temperature;BME280_humidity;BME280_pressure;Samples;Min_cycle;Max_cycle;Signal;HPM_P1;HPM_P2
2024/02/16 00:00:17;;;;;;;23.1;11.7;;;;;;;3.29;88.81;99240;;;;
2024/02/16 00:10:19;;;;;;;23.1;11.7;;;;;;;3.2;88.65;99245;;;;
2024/02/16 00:21:17;;;;;;;23.4;14.4;;;;;;;3.08;88.76;99255;;;;
2024/02/16 00:31:19;;;;;;;23.4;14.4;;;;;;;2.96;89.97;99251.666666667;;;;
2024/02/16 00:42:17;;;;;;;23.4;14.4;;;;;;;2.95;89.55;99245;;;;
2024/02/16 00:53:19;;;;;;;30.9;19.6;;;;;;;2.91;89.5;99230;;;;
2024/02/16 01:03:17;;;;;;;30.9;19.6;;;;;;;2.9;90.06;99221.666666667;;;;
2024/02/16 01:13:17;;;;;;;30.9;19.6;;;;;;;2.89;90.94;99218.333333333;;;;
2024/02/16 01:24:17;;;;;;;23.6;14.6;;;;;;;2.78;90.11;99210;;;;
2024/02/16 01:34:17;;;;;;;23.6;14.6;;;;;;;2.72;90.04;99206.666666667;;;;
2024/02/16 01:44:17;;;;;;;23.6;14.6;;;;;;;2.72;90.11;99203.333333333;;;;
2024/02/16 01:54:17;;;;;;;23.2;14;;;;;;;2.68;91.09;99195;;;;
2024/02/16 02:05:17;;;;;;;23.2;14;;;;;;;2.72;90.93;99186.666666667;;;;
2024/02/16 02:15:17;;;;;;;23.2;14;;;;;;;2.74;91.24;99183.333333333;;;;
2024/02/16 02:25:17;;;;;;;22.4;13.7;;;;;;;2.65;90.67;99178.333333333;;;;
2024/02/16 02:35:17;;;;;;;22.4;13.7;;;;;;;2.55;90.73;99171.666666667;;;;
2024/02/16 02:45:17;;;;;;;22.4;13.7;;;;;;;2.24;89.56;99180;;;;
2024/02/16 02:56:18;;;;;;;20.7;10.7;;;;;;;2.14;89.56;99181.666666667;;;;
2024/02/16 03:06:17;;;;;;;20.7;10.7;;;;;;;2.01;90.12;99190;;;;
2024/02/16 03:17:17;;;;;;;20.7;10.7;;;;;;;1.91;89.31;99190;;;;
2024/02/16 03:28:17;;;;;;;22.4;12.6;;;;;;;1.61;89.37;99186.666666667;;;;
2024/02/16 03:38:17;;;;;;;22.4;12.6;;;;;;;1.66;89.88;99188.333333333;;;;
2024/02/16 03:49:17;;;;;;;22.3;12.6;;;;;;;1.54;89.27;99180;;;;
2024/02/16 04:00:17;;;;;;;22.3;12.6;;;;;;;1.41;89.59;99180;;;;
2024/02/16 04:11:17;;;;;;;22.3;12.6;;;;;;;1.36;89.44;99185;;;;
2024/02/16 04:22:17;;;;;;;19.7;11.9;;;;;;;1.28;90.06;99188.333333333;;;;
2024/02/16 04:32:18;;;;;;;19.7;11.9;;;;;;;1.32;89.94;99188.333333333;;;;
2024/02/16 04:43:17;;;;;;;19.7;11.9;;;;;;;1.24;89.3;99200;;;;
2024/02/16 04:53:17;;;;;;;20.6;13.1;;;;;;;1.16;89.08;99193.333333333;;;;
2024/02/16 05:03:17;;;;;;;20.6;13.1;;;;;;;1.08;89.33;99193.333333333;;;;
2024/02/16 05:13:17;;;;;;;20.6;13.1;;;;;;;1.02;89.31;99193.333333333;;;;
2024/02/16 05:24:17;;;;;;;21.2;12.8;;;;;;;0.98;89.38;99186.666666667;;;;
2024/02/16 05:35:17;;;;;;;21.2;12.8;;;;;;;0.91;89.21;99186.666666667;;;;
2024/02/16 05:46:17;;;;;;;21.2;12.8;;;;;;;0.92;89.5;99200;;;;
2024/02/16 05:56:17;;;;;;;17.6;10.5;;;;;;;0.91;90.37;99198.333333333;;;;
2024/02/16 06:06:17;;;;;;;17.6;10.5;;;;;;;1.05;90.97;99190;;;;
2024/02/16 06:17:17;;;;;;;29.6;16.3;;;;;;;1.28;90.93;99213.333333333;;;;
2024/02/16 06:27:17;;;;;;;29.6;16.3;;;;;;;1.39;90.58;99220;;;;
2024/02/16 06:37:17;;;;;;;29.6;16.3;;;;;;;1.54;90.55;99225;;;;
2024/02/16 06:47:18;;;;;;;27.2;15.6;;;;;;;1.84;90.75;99230;;;;
2024/02/16 06:57:17;;;;;;;27.2;15.6;;;;;;;2.05;90.6;99223.333333333;;;;
2024/02/16 07:08:17;;;;;;;27.2;15.6;;;;;;;2.38;90.95;99218.333333333;;;;
2024/02/16 07:18:17;;;;;;;32;20.3;;;;;;;2.74;91.25;99215;;;;
2024/02/16 07:29:17;;;;;;;32;20.3;;;;;;;3.28;91.39;99213.333333333;;;;
2024/02/16 07:39:17;;;;;;;32;20.3;;;;;;;3.62;91.11;99213.333333333;;;;
2024/02/16 07:49:17;;;;;;;34.6;21.3;;;;;;;4.1;90.96;99213.333333333;;;;
2024/02/16 08:00:17;;;;;;;34.6;21.3;;;;;;;4.34;88.84;99211.666666667;;;;
2024/02/16 08:11:17;;;;;;;34.6;21.3;;;;;;;4.98;89.63;99211.666666667;;;;
2024/02/16 08:22:17;;;;;;;43.9;25.9;;;;;;;5.27;88.76;99216.666666667;;;;
2024/02/16 08:32:17;;;;;;;43.9;25.9;;;;;;;5.68;88.45;99221.666666667;;;;
2024/02/16 10:39:04;;;;;;;28;19.2;;;;;;;11.72;72.56;99170;;;;
2024/02/16 10:48:57;;;;;;;28;19.2;;;;;;;12.3;69.79;99160;;;;
2024/02/16 12:16:24;;;;;;;13.6;10.1;;;;;;;14.96;60.98;99093.333333333;;;;
2024/02/16 12:26:20;;;;;;;13.6;10.1;;;;;;;15.14;59.28;99081.666666667;;;;
2024/02/16 12:36:22;;;;;;;15.5;11.7;;;;;;;15.29;59.39;99080;;;;
2024/02/16 13:17:58;;;;;;;15.8;12.1;;;;;;;15.01;61.16;99063.333333333;;;;
2024/02/16 13:27:54;;;;;;;15.8;12.1;;;;;;;15.18;60.66;99065;;;;
2024/02/16 13:37:54;;;;;;;16.4;9.6;;;;;;;15;60.6;99061.666666667;;;;
2024/02/16 13:48:56;;;;;;;16.4;9.6;;;;;;;15.19;59.84;99053.333333333;;;;
2024/02/16 13:59:54;;;;;;;16.4;9.6;;;;;;;15.05;60.65;99056.666666667;;;;
2024/02/16 14:09:54;;;;;;;13;7.4;;;;;;;15.15;60.71;99053.333333333;;;;
2024/02/16 14:20:54;;;;;;;13;7.4;;;;;;;14.88;61.65;99043.333333333;;;;
2024/02/16 14:30:54;;;;;;;13;7.4;;;;;;;14.84;61.65;99033.333333333;;;;
2024/02/16 14:40:54;;;;;;;9.8;6;;;;;;;14.72;62.4;99031.666666667;;;;
2024/02/16 14:51:54;;;;;;;9.8;6;;;;;;;14.53;62.44;99056.666666667;;;;
2024/02/16 15:02:54;;;;;;;9.4;6.8;;;;;;;14.18;63.17;99018.333333333;;;;
2024/02/16 15:13:54;;;;;;;9.4;6.8;;;;;;;13.79;64.17;99020;;;;
2024/02/16 15:23:55;;;;;;;9.4;6.8;;;;;;;13.47;65.38;99013.333333333;;;;
2024/02/16 15:33:54;;;;;;;9.3;6.2;;;;;;;13.1;66.21;99005;;;;
2024/02/16 15:43:54;;;;;;;9.3;6.2;;;;;;;12.7;66.73;99006.666666667;;;;
2024/02/16 15:54:54;;;;;;;9.3;6.2;;;;;;;12.14;68.05;99036.666666667;;;;
2024/02/16 16:04:54;;;;;;;15.7;11;;;;;;;11.62;69.15;99010;;;;
2024/02/16 16:29:25;;;;;;;12.8;7.1;;;;;;;10.48;71.91;;;;;
2024/02/16 16:40:20;;;;;;;12.8;7.1;;;;;;;9.98;73.26;;;;;
2024/02/16 16:51:21;;;;;;;15.5;9.3;;;;;;;9.57;75.04;;;;;
2024/02/16 17:01:20;;;;;;;15.5;9.3;;;;;;;9.19;75.96;;;;;
2024/02/16 17:11:22;;;;;;;15.5;9.3;;;;;;;8.91;77.1;;;;;
2024/02/16 17:22:20;;;;;;;15.8;8.7;;;;;;;8.9;78.86;;;;;
2024/02/16 17:32:20;;;;;;;15.8;8.7;;;;;;;8.63;78.7;;;;;
2024/02/16 17:43:20;;;;;;;17.8;10.9;;;;;;;8.37;79.53;;;;;
2024/02/16 17:53:20;;;;;;;17.8;10.9;;;;;;;8.22;80.25;;;;;
2024/02/16 18:04:20;;;;;;;17.8;10.9;;;;;;;8.05;80.77;;;;;
2024/02/16 18:15:20;;;;;;;14.9;8.2;;;;;;;7.86;80.8;;;;;
2024/02/16 18:26:21;;;;;;;14.9;8.2;;;;;;;7.64;81.4;;;;;
2024/02/16 18:37:20;;;;;;;14.9;8.2;;;;;;;7.59;81.66;;;;;
2024/02/16 18:47:21;;;;;;;23.3;12.9;;;;;;;7.5;82.05;;;;;
2024/02/16 18:58:20;;;;;;;23.3;12.9;;;;;;;7.84;82.39;;;;;
2024/02/16 19:08:20;;;;;;;23.3;12.9;;;;;;;8.22;80.08;;;;;
2024/02/16 19:18:20;;;;;;;20.9;12.3;;;;;;;8.33;79.47;;;;;
2024/02/16 19:29:20;;;;;;;20.9;12.3;;;;;;;8.64;77.6;;;;;
2024/02/16 19:40:20;;;;;;;20.9;12.3;;;;;;;8.64;76.76;;;;;
2024/02/16 19:51:22;;;;;;;19.4;10;;;;;;;8.17;77.04;;;;;
2024/02/16 20:02:20;;;;;;;19.4;10;;;;;;;7.73;77.3;;;;;
2024/02/16 20:13:20;;;;;;;13.1;7.9;;;;;;;7.49;78.7;;;;;
2024/02/16 20:23:22;;;;;;;13.1;7.9;;;;;;;7.25;79.13;;;;;
2024/02/16 20:33:21;;;;;;;13.1;7.9;;;;;;;7.05;79.24;;;;;
2024/02/16 20:44:21;;;;;;;14.3;8.7;;;;;;;6.79;79.93;;;;;
2024/02/16 20:54:24;;;;;;;14.3;8.7;;;;;;;6.46;79.94;;;;;
2024/02/16 21:04:20;;;;;;;14.3;8.7;;;;;;;6.23;81.74;;;;;
2024/02/16 21:15:21;;;;;;;15.2;9.3;;;;;;;6.03;81.89;;;;;
2024/02/16 21:25:20;;;;;;;15.2;9.3;;;;;;;5.78;81.58;;;;;
2024/02/16 21:35:21;;;;;;;15.2;9.3;;;;;;;5.61;82.31;;;;;
2024/02/16 21:46:20;;;;;;;15.5;9;;;;;;;5.48;82.71;;;;;
2024/02/16 21:56:21;;;;;;;15.5;9;;;;;;;5.29;82.35;;;;;
2024/02/16 22:06:21;;;;;;;15.5;9;;;;;;;5.11;82.73;;;;;
2024/02/16 22:16:21;;;;;;;11;6.1;;;;;;;4.95;83.05;;;;;
2024/02/16 22:26:20;;;;;;;11;6.1;;;;;;;4.81;83.61;;;;;
2024/02/16 22:37:20;;;;;;;11;6.1;;;;;;;4.72;83.72;;;;;
2024/02/16 22:48:21;;;;;;;15.7;8;;;;;;;4.61;85.07;;;;;
2024/02/16 22:58:20;;;;;;;15.7;8;;;;;;;4.71;85.13;;;;;
2024/02/16 23:08:21;;;;;;;15.7;8;;;;;;;4.57;84.7;;;;;
2024/02/16 23:18:21;;;;;;;17.9;10.3;;;;;;;4.33;85.85;;;;;
2024/02/16 23:29:21;;;;;;;17.9;10.3;;;;;;;4.37;85.89;;;;;
2024/02/16 23:40:21;;;;;;;17.9;10.3;;;;;;;4.51;86.48;;;;;
2024/02/16 23:50:21;;;;;;;16.6;9.3;;;;;;;4.64;86.41;;;;;
